Historyczne dane pomiarowe

Dodano dane terminowe – wersja testowa.

Dane z okresu 1951-2019

Wersja bazy: 1.34 [2019-03-16, lista zmian], aktualizacja planowana na 2019-04-15

Dane meteo z obszaru Polski uzyskane na podstawie danych udostępnionych przez Instytut Meteorologii i Gospodarki Wodnej – Państwowy Instytut Badawczy.

 

Wybierz Datę:    

       

TemperaturaWilgotnośćWiatrCiśnienieOpadyŚniegCzas trwania zjawisk
 Stacja t tx tn tng RH VA  wxwx mslp ppp RRR   cm mm wxwxwxwxwxwxwx
1983-08-14 14.7 20.4 9.7 8.5 64.0- 2.7 2.7---- 0.0------------
1983-08-13 15.3 22.6 12.7 12.5 78.3- 6.7 4.3---- 5.9------------
1983-08-12 21.6 27.0 15.4 13.4 57.8- 0.3 3.3---- 6.8------------
1983-08-11 21.4 27.5 15.0 13.2 61.0- 3.0 3.0---- 0.0------------
1983-08-10 20.8 26.4 14.2 12.4 64.8- 1.0 1.7---- 0.0------------
1983-08-09 21.4 27.2 16.1 15.0 69.5- 0.7 2.7---- 0.0------------
1983-08-08 19.7 26.7 16.0 14.6 82.8- 6.0 3.0---- 2.8------------
1983-08-07 19.7 25.1 17.2 15.6 78.8- 6.0 4.0---- 13.6------------
1983-08-06 17.2 23.1 9.3 8.7 69.3- 2.0 2.0---- 0.0------------
1983-08-05 14.5 18.7 11.3 11.2 80.8- 6.3 2.7---- 0.0------------
1983-08-04 14.5 20.6 13.4 14.6 89.3- 8.0 2.3---- 8.0------------
1983-08-03 20.7 28.1 15.4 15.9 77.8- 6.3 3.0---- 1.8------------
1983-08-02 22.3 29.5 13.5 11.4 56.0- 4.0 3.3---- 6.8------------
1983-08-01 21.1 28.7 11.6 10.2 52.0- 0.0 2.7---- 0.0------------
1983-07-31 19.0 25.1 12.4 10.8 55.5- 1.7 2.0---- 0.0------------
1983-07-30 16.8 22.5 15.1 14.9 73.0- 7.7 7.0---- 0.0------------
1983-07-29 20.4 26.0 14.1 12.8 59.3- 4.7 3.3---- 1.0------------
1983-07-28 22.4 27.9 19.3 17.5 64.0- 4.3 4.7---- 0.0------------
1983-07-27 24.0 31.7 15.0 13.3 52.8- 2.7 1.3---- 0.6------------
1983-07-26 21.5 29.7 12.9 12.5 66.3- 2.0 2.7---- 0.0------------
1983-07-25 15.2 19.0 9.4 8.2 82.3- 7.0 2.7---- 3.6------------
1983-07-24 15.8 20.4 12.1 12.2 82.5- 6.3 1.7---- 0.0------------
1983-07-23 16.5 21.3 11.9 11.4 72.0- 6.3 5.3---- 0.4------------
1983-07-22 15.3 20.5 10.6 10.1 61.0- 7.3 4.3---- 2.2------------
1983-07-21 13.4 18.8 9.9 8.9 68.3- 5.3 3.7---- 0.1------------
1983-07-20 14.8 24.2 10.8 12.7 76.3- 5.7 3.3---- 9.4------------
1983-07-19 24.0 27.4 20.5 19.1 57.0- 5.7 6.0---- 0.0------------
1983-07-18 22.2 29.9 9.8 8.5 52.3- 0.3 3.0---- 0.0------------
1983-07-17 19.5 24.8 14.4 13.4 66.8- 2.7 2.3---- 0.0------------
1983-07-16 20.3 28.0 14.4 12.4 62.0- 4.0 5.3---- 0.8------------
1983-07-15 19.7 26.2 11.3 9.9 59.3- 1.3 3.7---- 0.0------------
1983-07-14 21.3 27.1 16.8 15.9 69.8- 5.7 3.7---- 0.0------------
1983-07-13 22.1 27.9 16.8 15.5 66.3- 3.0 3.0---- 0.0------------
1983-07-12 21.7 26.2 16.3 16.0 71.0- 5.3 4.3---- 0.0------------
1983-07-11 21.9 27.0 17.4 16.2 73.8- 7.0 2.7---- 3.2------------
1983-07-10 23.8 30.1 15.6 14.2 50.8- 3.0 1.7---- 0.0------------
1983-07-09 23.0 28.8 15.0 12.9 55.5- 1.7 3.0---- 0.0------------
1983-07-08 20.3 26.9 11.9 10.2 57.3- 1.3 3.0---- 0.0------------
1983-07-07 20.8 26.3 13.4 12.3 52.5- 0.0 3.0---- 0.0------------
1983-07-06 21.1 26.5 13.0 11.4 64.8- 1.0 3.0---- 0.0------------
1983-07-05 19.5 24.1 13.2 12.1 63.0- 1.0 3.0---- 0.0------------
1983-07-04 21.6 26.8 15.7 15.7 58.0- 1.3 3.7---- 0.0------------
1983-07-03 19.0 24.0 9.4 8.9 61.8- 3.7 2.7---- 0.0------------
1983-07-02 17.5 23.9 14.5 14.5 80.5- 5.3 3.7---- 1.4------------
1983-07-01 20.6 26.9 11.6 10.8 65.3- 2.7 2.0---- 2.8------------
1983-06-30 17.7 24.0 9.2 8.3 57.3- 0.0 1.0---- 0.0------------
1983-06-29 14.4 19.9 8.2 7.0 59.8- 2.0 3.3---- 0.0------------
1983-06-28 17.3 21.0 14.5 15.0 73.5- 4.3 3.0---- 4.4------------
1983-06-27 18.6 25.9 10.9 9.9 78.3- 6.0 2.0---- 12.5------------
1983-06-26 20.4 25.4 13.5 12.5 51.5- 0.3 3.7---- 0.2------------
1983-06-25 21.5 29.5 13.4 10.4 53.3- 2.7 3.3---- 0.0------------
1983-06-24 20.0 26.3 7.9 6.3 44.0- 0.3 3.0---- 0.0------------
1983-06-23 15.5 21.9 4.8 4.0 52.3- 0.0 1.7---- 0.0------------
1983-06-22 14.0 18.4 7.6 6.9 52.5- 0.3 2.7---- 0.0------------
1983-06-21 17.5 24.5 13.1 11.3 62.3- 0.0 4.3---- 0.0------------
1983-06-20 20.3 25.5 15.0 15.0 61.8- 0.0 4.0---- 0.0------------
1983-06-19 17.5 21.4 14.1 14.2 80.5- 6.7 5.7---- 0.1------------
1983-06-18 14.4 17.1 11.1 10.5 77.5- 7.7 4.3---- 0.0------------
1983-06-17 14.0 19.1 8.4 7.5 72.0- 6.7 3.7---- 0.0------------
1983-06-16 13.5 17.5 10.0 10.4 76.5- 7.0 7.3---- 0.1------------
251.2 ms

 

Źródłem pochodzenia danych jest Instytut Meteorologii i Gospodarki Wodnej – Państwowy Instytut Badawczy. Dane Instytutu Meteorologii i Gospodarki Wodnej – Państwowego Instytutu Badawczego zostały przetworzone.

Dane źródłowe można odnaleźć na stronie https://dane.imgw.pl